createdAt,value
2018-09-16T00:02:19.857Z,11.50
2018-09-16T00:04:47.053Z,11.30
2018-09-16T00:09:41.326Z,11.30
2018-09-16T00:12:08.546Z,11.30
2018-09-16T00:19:30.080Z,11.30
2018-09-16T00:21:57.233Z,11.20
2018-09-16T00:24:24.387Z,11.10
2018-09-16T00:26:51.596Z,11.30
2018-09-16T00:29:18.802Z,11.20
2018-09-16T00:31:49.140Z,11.10
2018-09-16T00:34:16.305Z,11.20
2018-09-16T00:36:43.439Z,11.20
2018-09-16T00:39:10.692Z,11.30
2018-09-16T00:41:37.861Z,11.30
2018-09-16T00:44:05.386Z,11.50
2018-09-16T00:46:32.539Z,11.30
2018-09-16T00:48:59.905Z,11.30
2018-09-16T00:51:27.656Z,11.30
2018-09-16T00:56:22.380Z,11.20
2018-09-16T01:01:16.585Z,11.30
2018-09-16T01:03:44.141Z,11.10
2018-09-16T01:06:17.028Z,11.20
2018-09-16T01:08:44.208Z,11.30
2018-09-16T01:11:11.432Z,11.10
2018-09-16T01:13:38.582Z,11.20
2018-09-16T01:16:05.907Z,11.10
2018-09-16T01:18:33.064Z,11.20
2018-09-16T01:21:00.253Z,11.30
2018-09-16T01:23:27.715Z,11.10
2018-09-16T01:28:22.021Z,11.00
2018-09-16T01:30:49.328Z,10.90
2018-09-16T01:33:16.525Z,11.00
2018-09-16T01:38:16.273Z,11.00
2018-09-16T01:40:43.402Z,11.20
2018-09-16T01:43:10.534Z,11.10
2018-09-16T01:45:37.716Z,11.10
2018-09-16T01:48:04.871Z,10.90
2018-09-16T01:50:32.053Z,11.10
2018-09-16T01:52:59.449Z,11.10
2018-09-16T01:55:26.671Z,11.20
2018-09-16T01:57:53.856Z,10.90
2018-09-16T02:02:53.400Z,11.10
2018-09-16T02:05:26.711Z,11.20
2018-09-16T02:10:22.068Z,11.20
2018-09-16T02:12:49.343Z,11.20
2018-09-16T02:17:44.257Z,11.20
2018-09-16T02:25:05.836Z,11.10
2018-09-16T02:27:33.384Z,11.50
2018-09-16T02:30:00.848Z,11.10
2018-09-16T02:35:01.827Z,10.90
2018-09-16T02:37:28.982Z,10.80
2018-09-16T02:39:56.161Z,10.80
2018-09-16T02:42:23.786Z,10.70
2018-09-16T02:44:50.944Z,10.60
2018-09-16T02:47:18.127Z,10.80
2018-09-16T02:49:45.303Z,10.70
2018-09-16T02:52:12.459Z,10.80
2018-09-16T02:54:39.596Z,10.80
2018-09-16T02:59:33.930Z,10.80
2018-09-16T03:02:01.108Z,10.80
2018-09-16T03:06:55.704Z,10.60
2018-09-16T03:09:22.861Z,10.80
2018-09-16T03:11:50.172Z,10.70
2018-09-16T03:14:17.151Z,10.60
2018-09-16T03:19:11.400Z,10.50
2018-09-16T03:21:38.580Z,10.40
2018-09-16T03:24:05.762Z,10.40
2018-09-16T03:31:26.990Z,10.30
2018-09-16T03:33:54.172Z,10.20
2018-09-16T03:36:21.487Z,10.30
2018-09-16T03:43:43.036Z,10.30
2018-09-16T03:46:10.303Z,10.50
2018-09-16T03:51:28.740Z,10.30
2018-09-16T03:56:22.992Z,10.40
2018-09-16T04:11:05.941Z,10.30
2018-09-16T04:18:27.258Z,10.20
2018-09-16T04:20:54.480Z,10.30
2018-09-16T04:33:09.880Z,10.10
2018-09-16T04:38:04.205Z,10.00
2018-09-16T04:40:31.466Z,10.10
2018-09-16T04:42:58.628Z,10.00
2018-09-16T04:45:25.822Z,10.10
2018-09-16T04:47:53.789Z,10.10
2018-09-16T04:52:48.084Z,10.10
2018-09-16T04:55:15.230Z,10.10
2018-09-16T05:00:09.399Z,10.10
2018-09-16T05:02:36.919Z,10.10
2018-09-16T05:05:04.129Z,10.20
2018-09-16T05:07:31.416Z,10.10
2018-09-16T05:09:58.597Z,10.30
2018-09-16T05:14:53.272Z,10.10
2018-09-16T05:17:20.497Z,10.10
2018-09-16T05:19:47.628Z,9.90
2018-09-16T05:22:14.840Z,9.70
2018-09-16T05:24:41.938Z,9.70
2018-09-16T05:27:09.054Z,9.80
2018-09-16T05:29:36.291Z,9.80
2018-09-16T05:32:03.445Z,9.90
2018-09-16T05:34:30.532Z,10.10
2018-09-16T05:36:57.682Z,10.30
2018-09-16T05:39:24.940Z,10.30
2018-09-16T05:41:52.103Z,10.50
2018-09-16T05:44:19.277Z,10.60
2018-09-16T05:46:46.804Z,10.70
2018-09-16T05:49:13.982Z,10.90
2018-09-16T05:51:41.147Z,11.00
2018-09-16T05:56:35.413Z,11.20
2018-09-16T05:59:02.976Z,11.20
2018-09-16T06:01:30.145Z,11.40
2018-09-16T06:03:57.402Z,11.80
2018-09-16T06:08:51.565Z,11.70
2018-09-16T06:11:18.779Z,11.80
2018-09-16T06:13:46.121Z,11.80
2018-09-16T06:16:13.601Z,12.00
2018-09-16T06:18:40.897Z,12.00
2018-09-16T06:21:08.048Z,12.00
2018-09-16T06:23:35.172Z,12.20
2018-09-16T06:26:02.349Z,12.30
2018-09-16T06:28:29.539Z,12.50
2018-09-16T06:30:56.697Z,12.70
2018-09-16T06:35:50.946Z,12.70
2018-09-16T06:38:18.092Z,12.80
2018-09-16T06:43:12.458Z,13.20
2018-09-16T06:45:39.666Z,13.10
2018-09-16T06:48:06.884Z,13.20
2018-09-16T06:50:34.116Z,13.20
2018-09-16T06:53:01.383Z,13.30
2018-09-16T06:55:29.268Z,13.30
2018-09-16T06:57:56.544Z,13.30
2018-09-16T07:02:50.677Z,13.70
2018-09-16T07:05:17.911Z,13.80
2018-09-16T07:10:12.064Z,13.50
2018-09-16T07:15:06.978Z,13.40
2018-09-16T07:17:34.873Z,13.60
2018-09-16T07:20:02.929Z,13.60
2018-09-16T07:24:57.552Z,13.80
2018-09-16T07:27:24.867Z,13.80
2018-09-16T07:29:51.983Z,13.90
2018-09-16T07:34:46.853Z,14.00
2018-09-16T07:37:14.102Z,14.10
2018-09-16T07:39:41.408Z,14.30
2018-09-16T07:42:08.682Z,14.40
2018-09-16T07:44:35.893Z,14.50
2018-09-16T07:47:03.809Z,14.60
2018-09-16T07:49:31.061Z,14.60
2018-09-16T07:51:58.272Z,14.70
2018-09-16T07:54:25.459Z,14.80
2018-09-16T07:59:19.666Z,15.00
2018-09-16T08:04:14.701Z,15.10
2018-09-16T08:11:38.009Z,15.30
2018-09-16T08:21:26.805Z,15.50
2018-09-16T08:23:54.141Z,15.60
2018-09-16T08:26:21.309Z,15.50
2018-09-16T08:28:48.916Z,15.60
2018-09-16T08:33:43.329Z,15.80
2018-09-16T08:41:04.614Z,16.00
2018-09-16T08:43:31.914Z,16.20
2018-09-16T08:45:59.156Z,16.30
2018-09-16T08:48:26.407Z,16.50
2018-09-16T08:50:53.801Z,16.80
2018-09-16T08:53:21.659Z,17.20
2018-09-16T08:55:48.791Z,17.40
2018-09-16T09:00:43.105Z,17.40
2018-09-16T09:03:10.288Z,17.40
2018-09-16T09:05:37.442Z,17.90
2018-09-16T09:08:04.734Z,18.30
2018-09-16T09:10:32.042Z,19.00
2018-09-16T09:12:59.181Z,19.30
2018-09-16T09:17:53.504Z,20.20
2018-09-16T09:20:20.880Z,20.60
2018-09-16T09:25:15.380Z,22.10
2018-09-16T09:27:42.544Z,21.80
2018-09-16T09:32:37.632Z,20.20
2018-09-16T09:37:32.543Z,19.20
2018-09-16T09:42:27.242Z,18.90
2018-09-16T09:44:54.661Z,18.90
2018-09-16T09:52:16.147Z,19.00
2018-09-16T09:57:10.541Z,20.80
2018-09-16T09:59:37.853Z,22.50
2018-09-16T10:04:33.204Z,24.40
2018-09-16T10:07:02.184Z,23.90
2018-09-16T10:09:29.533Z,22.50
2018-09-16T10:11:57.368Z,21.10
2018-09-16T10:14:24.671Z,20.90
2018-09-16T10:24:14.491Z,22.20
2018-09-16T10:31:36.002Z,20.80
2018-09-16T10:36:30.276Z,21.20
2018-09-16T10:38:57.598Z,21.70
2018-09-16T10:46:18.966Z,21.10
2018-09-16T10:51:15.184Z,22.70
2018-09-16T10:53:42.490Z,23.20
2018-09-16T10:56:09.819Z,24.80
2018-09-16T10:58:37.022Z,26.30
2018-09-16T11:01:04.381Z,25.00
2018-09-16T11:03:31.654Z,24.30
2018-09-16T11:05:58.917Z,23.80
2018-09-16T11:08:26.314Z,23.50
2018-09-16T11:10:53.636Z,24.00
2018-09-16T11:13:20.894Z,24.00
2018-09-16T11:18:15.437Z,25.50
2018-09-16T11:20:42.668Z,24.60
2018-09-16T11:23:09.956Z,24.50
2018-09-16T11:25:37.534Z,25.40
2018-09-16T11:30:32.012Z,24.50
2018-09-16T11:40:20.994Z,25.40
2018-09-16T11:42:48.226Z,26.60
2018-09-16T11:45:15.447Z,26.50
2018-09-16T11:50:09.718Z,26.20
2018-09-16T11:52:36.942Z,26.20
2018-09-16T11:55:04.220Z,26.10
2018-09-16T12:04:52.572Z,26.90
2018-09-16T12:07:20.400Z,26.30
2018-09-16T12:09:47.549Z,25.50
2018-09-16T12:12:14.785Z,26.00
2018-09-16T12:14:42.160Z,26.40
2018-09-16T12:17:09.381Z,25.00
2018-09-16T12:19:36.757Z,24.70
2018-09-16T12:22:03.966Z,24.00
2018-09-16T12:24:31.163Z,25.30
2018-09-16T12:26:58.440Z,26.40
2018-09-16T12:31:52.761Z,25.50
2018-09-16T12:34:19.972Z,25.00
2018-09-16T12:36:47.320Z,25.50
2018-09-16T12:39:14.773Z,25.40
2018-09-16T12:41:42.400Z,25.70
2018-09-16T12:44:09.674Z,25.40
2018-09-16T12:46:37.294Z,25.00
2018-09-16T12:49:04.744Z,24.30
2018-09-16T12:56:26.413Z,25.70
2018-09-16T12:58:53.713Z,25.90
2018-09-16T13:03:48.519Z,25.70
2018-09-16T13:06:15.798Z,24.70
2018-09-16T13:11:10.365Z,22.50
2018-09-16T13:16:04.741Z,22.90
2018-09-16T13:18:32.001Z,22.60
2018-09-16T13:23:26.290Z,22.70
2018-09-16T13:25:53.700Z,21.90
2018-09-16T13:28:20.867Z,21.90
2018-09-16T13:30:48.073Z,21.70
2018-09-16T13:33:15.319Z,21.70
2018-09-16T13:38:09.689Z,21.50
2018-09-16T13:45:31.075Z,21.60
2018-09-16T13:47:58.340Z,21.60
2018-09-16T13:50:25.625Z,21.60
2018-09-16T13:52:52.884Z,22.20
2018-09-16T14:00:14.342Z,23.70
2018-09-16T14:02:43.112Z,23.80
2018-09-16T14:05:10.306Z,24.20
2018-09-16T14:10:04.726Z,26.30
2018-09-16T14:12:31.997Z,26.00
2018-09-16T14:14:59.167Z,26.30
2018-09-16T14:17:26.577Z,26.10
2018-09-16T14:19:58.127Z,25.10
2018-09-16T14:22:25.408Z,25.30
2018-09-16T14:24:52.524Z,24.40
2018-09-16T14:27:19.746Z,25.20
2018-09-16T14:29:47.077Z,25.10
2018-09-16T14:34:41.391Z,24.50
2018-09-16T14:47:17.517Z,22.30
2018-09-16T14:49:44.682Z,22.20
2018-09-16T14:52:11.949Z,22.60
2018-09-16T14:54:39.153Z,22.50
2018-09-16T14:57:06.348Z,22.30
2018-09-16T14:59:33.520Z,22.30
2018-09-16T15:02:00.789Z,22.20
2018-09-16T15:06:55.012Z,22.30
2018-09-16T15:09:22.224Z,22.20
2018-09-16T15:11:49.387Z,22.10
2018-09-16T15:16:43.861Z,22.20
2018-09-16T15:19:11.134Z,22.60
2018-09-16T15:31:27.313Z,22.50
2018-09-16T15:38:48.861Z,22.50
2018-09-16T15:43:43.234Z,22.80
2018-09-16T16:01:00.332Z,24.40
2018-09-16T16:03:27.488Z,24.70
2018-09-16T16:05:54.743Z,24.40
2018-09-16T16:08:21.940Z,24.60
2018-09-16T16:10:49.111Z,24.60
2018-09-16T16:13:16.342Z,23.70
2018-09-16T16:18:10.676Z,22.80
2018-09-16T16:23:05.025Z,23.30
2018-09-16T16:25:32.305Z,23.50
2018-09-16T16:27:59.505Z,23.70
2018-09-16T16:30:26.801Z,23.50
2018-09-16T16:35:21.092Z,22.50
2018-09-16T16:37:48.420Z,22.10
2018-09-16T16:42:42.734Z,21.00
2018-09-16T16:47:36.984Z,20.40
2018-09-16T16:52:31.912Z,19.90
2018-09-16T16:59:53.301Z,19.50
2018-09-16T17:04:48.238Z,19.20
2018-09-16T17:09:42.525Z,18.90
2018-09-16T17:12:11.877Z,19.00
2018-09-16T17:19:34.515Z,18.80
2018-09-16T17:22:01.748Z,18.60
2018-09-16T17:24:29.034Z,18.90
2018-09-16T17:26:56.236Z,18.50
2018-09-16T17:31:50.633Z,18.20
2018-09-16T17:41:39.929Z,18.00
2018-09-16T17:44:07.262Z,17.90
2018-09-16T17:46:35.581Z,17.90
2018-09-16T17:49:02.816Z,17.50
2018-09-16T17:51:29.987Z,17.40
2018-09-16T17:53:57.138Z,17.50
2018-09-16T17:56:24.480Z,17.40
2018-09-16T17:58:51.775Z,17.40
2018-09-16T18:01:24.740Z,17.30
2018-09-16T18:06:21.353Z,17.20
2018-09-16T18:08:49.059Z,17.20
2018-09-16T18:11:16.391Z,17.10
2018-09-16T18:21:05.869Z,16.70
2018-09-16T18:23:33.562Z,16.50
2018-09-16T18:26:00.945Z,16.40
2018-09-16T18:28:29.530Z,16.10
2018-09-16T18:35:56.856Z,15.70
2018-09-16T18:38:24.227Z,15.60
2018-09-16T18:41:00.981Z,15.30
2018-09-16T18:46:26.529Z,15.30
2018-09-16T18:54:02.788Z,15.20
2018-09-16T18:56:31.636Z,15.10
2018-09-16T18:58:59.938Z,15.10
2018-09-16T19:01:27.538Z,15.10
2018-09-16T19:03:54.884Z,15.20
2018-09-16T19:06:26.960Z,15.20
2018-09-16T19:08:55.674Z,15.10
2018-09-16T19:11:22.978Z,15.10
2018-09-16T19:13:50.637Z,15.10
2018-09-16T19:16:17.953Z,15.20
2018-09-16T19:18:45.789Z,15.20
2018-09-16T19:21:13.236Z,15.40
2018-09-16T19:26:08.237Z,15.30
2018-09-16T19:28:35.887Z,15.40
2018-09-16T19:33:30.232Z,15.40
2018-09-16T19:35:57.596Z,15.30
2018-09-16T19:38:25.089Z,15.40
2018-09-16T19:40:53.173Z,15.50
2018-09-16T19:43:22.973Z,15.40
2018-09-16T19:45:50.256Z,15.40
2018-09-16T19:50:45.509Z,15.40
2018-09-16T19:53:13.552Z,15.00
2018-09-16T19:55:40.695Z,15.10
2018-09-16T19:58:08.185Z,15.20
2018-09-16T20:00:35.471Z,14.90
2018-09-16T20:03:02.742Z,15.20
2018-09-16T20:05:29.996Z,15.20
2018-09-16T20:07:57.386Z,15.20
2018-09-16T20:10:24.754Z,15.10
2018-09-16T20:15:19.079Z,15.10
2018-09-16T20:17:46.568Z,15.60
2018-09-16T20:25:08.127Z,15.20
2018-09-16T20:27:35.277Z,15.00
2018-09-16T20:30:03.468Z,15.10
2018-09-16T20:32:30.789Z,15.10
2018-09-16T20:34:58.400Z,15.00
2018-09-16T20:39:52.559Z,15.00
2018-09-16T20:42:19.710Z,15.00
2018-09-16T20:44:46.844Z,15.00
2018-09-16T20:47:14.114Z,15.00
2018-09-16T20:49:41.425Z,15.30
2018-09-16T20:52:09.051Z,14.40
2018-09-16T20:54:36.269Z,14.90
2018-09-16T20:57:03.465Z,15.00
2018-09-16T20:59:30.778Z,15.20
2018-09-16T21:01:57.987Z,15.10
2018-09-16T21:04:25.228Z,15.10
2018-09-16T21:06:52.836Z,15.00
2018-09-16T21:09:21.027Z,15.20
2018-09-16T21:11:48.221Z,15.10
2018-09-16T21:14:15.371Z,15.00
2018-09-16T21:16:42.605Z,15.10
2018-09-16T21:19:10.029Z,15.00
2018-09-16T21:26:31.391Z,14.90
2018-09-16T21:28:58.518Z,14.90
2018-09-16T21:31:25.950Z,15.00
2018-09-16T21:33:53.133Z,14.70
2018-09-16T21:36:20.373Z,15.00
2018-09-16T21:38:47.523Z,15.00
2018-09-16T21:41:14.818Z,15.00
2018-09-16T21:46:09.762Z,14.90
2018-09-16T21:48:37.138Z,14.80
2018-09-16T21:51:04.408Z,14.70
2018-09-16T21:53:32.575Z,14.60
2018-09-16T21:55:59.903Z,14.50
2018-09-16T21:58:27.104Z,14.60
2018-09-16T22:00:54.992Z,14.60
2018-09-16T22:05:51.029Z,14.40
2018-09-16T22:08:18.162Z,14.30
2018-09-16T22:15:40.202Z,14.20
2018-09-16T22:18:07.461Z,14.10
2018-09-16T22:20:34.807Z,14.10
2018-09-16T22:25:30.438Z,14.10
2018-09-16T22:27:57.739Z,14.10
2018-09-16T22:32:52.144Z,14.00
2018-09-16T22:35:19.255Z,14.00
2018-09-16T22:40:13.395Z,13.80
2018-09-16T22:42:40.542Z,13.50
2018-09-16T22:45:07.722Z,13.70
2018-09-16T22:47:34.932Z,13.80
2018-09-16T22:50:02.113Z,13.70
2018-09-16T22:52:29.347Z,13.60
2018-09-16T22:54:56.489Z,13.80
2018-09-16T22:57:23.730Z,13.90
2018-09-16T22:59:50.896Z,13.90
2018-09-16T23:02:18.077Z,13.90
2018-09-16T23:04:45.261Z,13.90
2018-09-16T23:07:12.452Z,14.00
2018-09-16T23:09:39.701Z,14.00
2018-09-16T23:12:06.888Z,14.00
2018-09-16T23:14:34.023Z,13.90
2018-09-16T23:17:02.222Z,14.10
2018-09-16T23:19:29.484Z,14.00
2018-09-16T23:21:56.572Z,14.10
2018-09-16T23:24:23.825Z,14.10
2018-09-16T23:26:50.993Z,14.20
2018-09-16T23:29:18.148Z,14.20
2018-09-16T23:31:45.419Z,14.30
2018-09-16T23:39:07.199Z,14.30
2018-09-16T23:44:01.850Z,14.20
2018-09-16T23:46:29.014Z,14.10
2018-09-16T23:48:56.188Z,14.00
2018-09-16T23:51:23.526Z,14.00
2018-09-16T23:53:50.666Z,13.70
2018-09-16T23:56:17.917Z,13.80
2018-09-16T23:58:45.154Z,13.70
